createdAt,value
2023-01-26T00:02:25.947Z,64.97
2023-01-26T00:04:53.626Z,64.75
2023-01-26T00:07:21.316Z,65.11
2023-01-26T00:09:49.699Z,64.93
2023-01-26T00:12:17.950Z,65.12
2023-01-26T00:14:54.507Z,65.38
2023-01-26T00:17:28.046Z,64.60
2023-01-26T00:19:58.804Z,64.87
2023-01-26T00:22:27.502Z,64.64
2023-01-26T00:24:55.215Z,65.02
2023-01-26T00:27:22.817Z,65.52
2023-01-26T00:29:50.553Z,64.77
2023-01-26T00:32:18.523Z,65.41
2023-01-26T00:34:47.397Z,65.74
2023-01-26T00:37:15.472Z,65.68
2023-01-26T00:39:42.616Z,65.22
2023-01-26T00:42:11.809Z,65.22
2023-01-26T00:44:39.371Z,66.09
2023-01-26T00:47:07.331Z,65.91
2023-01-26T00:49:34.947Z,65.99
2023-01-26T00:52:03.253Z,66.45
2023-01-26T00:54:31.791Z,66.71
2023-01-26T00:56:59.432Z,66.56
2023-01-26T00:59:27.156Z,67.04
2023-01-26T01:01:54.925Z,67.30
2023-01-26T01:04:23.117Z,66.98
2023-01-26T01:06:50.771Z,66.66
2023-01-26T01:09:18.788Z,66.48
2023-01-26T01:11:46.548Z,66.40
2023-01-26T01:14:14.787Z,66.57
2023-01-26T01:16:42.983Z,66.41
2023-01-26T01:19:14.510Z,66.54
2023-01-26T01:21:42.677Z,67.06
2023-01-26T01:24:10.835Z,67.31
2023-01-26T01:26:39.549Z,67.51
2023-01-26T01:29:07.331Z,67.44
2023-01-26T01:31:35.250Z,67.40
2023-01-26T01:34:03.609Z,66.57
2023-01-26T01:36:32.097Z,67.06
2023-01-26T01:39:01.330Z,67.08
2023-01-26T01:41:29.944Z,67.02
2023-01-26T01:44:22.699Z,67.12
2023-01-26T01:46:52.467Z,67.43
2023-01-26T01:49:34.602Z,67.48
2023-01-26T01:52:15.383Z,67.88
2023-01-26T01:54:54.842Z,67.07
2023-01-26T01:57:29.831Z,67.69
2023-01-26T02:00:10.475Z,66.81
2023-01-26T02:02:38.631Z,66.96
2023-01-26T02:05:14.188Z,66.67
2023-01-26T02:07:42.431Z,66.82
2023-01-26T02:10:20.055Z,66.18
2023-01-26T02:12:48.067Z,66.15
2023-01-26T02:15:16.285Z,66.60
2023-01-26T02:17:44.018Z,66.45
2023-01-26T02:20:43.613Z,66.41
2023-01-26T02:23:26.423Z,66.16
2023-01-26T02:25:53.006Z,66.16
2023-01-26T02:28:21.878Z,66.25
2023-01-26T02:30:49.525Z,65.84
2023-01-26T02:33:24.726Z,65.49
2023-01-26T02:35:52.278Z,65.57
2023-01-26T02:38:20.363Z,65.84
2023-01-26T02:40:51.963Z,65.82
2023-01-26T02:43:18.917Z,66.30
2023-01-26T02:45:46.294Z,65.76
2023-01-26T02:48:14.627Z,65.45
2023-01-26T02:50:42.565Z,65.64
2023-01-26T02:53:10.779Z,66.75
2023-01-26T02:55:39.178Z,66.55
2023-01-26T02:58:08.191Z,66.57
2023-01-26T03:00:37.504Z,66.00
2023-01-26T03:03:12.910Z,66.54
2023-01-26T03:05:41.571Z,66.28
2023-01-26T03:08:09.737Z,66.21
2023-01-26T03:10:38.219Z,66.51
2023-01-26T03:13:06.467Z,65.96
2023-01-26T03:15:43.430Z,65.61
2023-01-26T03:18:30.061Z,66.03
2023-01-26T03:21:17.435Z,65.79
2023-01-26T03:24:03.947Z,66.36
2023-01-26T03:26:50.397Z,66.32
2023-01-26T03:29:18.550Z,66.18
2023-01-26T03:31:46.713Z,66.46
2023-01-26T03:34:14.802Z,66.67
2023-01-26T03:36:45.692Z,66.65
2023-01-26T03:39:34.231Z,67.30
2023-01-26T03:42:20.665Z,66.72
2023-01-26T03:45:07.120Z,66.72
2023-01-26T03:47:54.039Z,66.86
2023-01-26T03:50:40.492Z,66.49
2023-01-26T03:53:52.466Z,66.63
2023-01-26T03:56:34.310Z,67.38
2023-01-26T03:59:08.342Z,66.75
2023-01-26T04:01:37.822Z,67.62
2023-01-26T04:04:24.235Z,67.19
2023-01-26T04:07:10.941Z,67.43
2023-01-26T04:09:39.745Z,67.12
2023-01-26T04:12:10.512Z,68.18
2023-01-26T04:14:56.817Z,68.51
2023-01-26T04:17:42.739Z,68.58
2023-01-26T04:20:31.360Z,67.92
2023-01-26T04:22:59.574Z,68.25
2023-01-26T04:25:27.710Z,69.62
2023-01-26T04:27:55.278Z,69.89
2023-01-26T04:30:24.213Z,69.89
2023-01-26T04:32:52.906Z,69.04
2023-01-26T04:35:20.937Z,70.17
2023-01-26T04:37:49.349Z,70.11
2023-01-26T04:40:17.422Z,70.10
2023-01-26T04:42:45.943Z,70.67
2023-01-26T04:45:14.132Z,71.17
2023-01-26T04:47:42.312Z,70.07
2023-01-26T04:50:12.325Z,70.72
2023-01-26T04:52:40.800Z,69.84
2023-01-26T04:55:10.890Z,69.86
2023-01-26T04:57:38.575Z,68.87
2023-01-26T05:00:11.157Z,69.49
2023-01-26T05:02:44.197Z,68.57
2023-01-26T05:05:11.848Z,68.73
2023-01-26T05:07:39.903Z,68.27
2023-01-26T05:10:09.841Z,68.72
2023-01-26T05:12:38.443Z,68.10
2023-01-26T05:15:08.278Z,68.22
2023-01-26T05:17:36.384Z,68.10
2023-01-26T05:20:06.691Z,68.56
2023-01-26T05:22:35.555Z,68.35
2023-01-26T05:25:03.728Z,68.22
2023-01-26T05:27:31.482Z,68.16
2023-01-26T05:30:02.072Z,67.56
2023-01-26T05:32:30.701Z,67.15
2023-01-26T05:34:58.446Z,66.85
2023-01-26T05:37:26.537Z,66.56
2023-01-26T05:39:54.559Z,66.99
2023-01-26T05:42:22.758Z,67.15
2023-01-26T05:44:51.197Z,67.03
2023-01-26T05:47:21.236Z,67.25
2023-01-26T05:49:48.831Z,67.50
2023-01-26T05:52:18.208Z,68.05
2023-01-26T05:54:46.541Z,67.29
2023-01-26T05:57:14.381Z,67.86
2023-01-26T05:59:43.054Z,68.04
2023-01-26T06:02:13.087Z,67.45
2023-01-26T06:04:41.007Z,68.48
2023-01-26T06:07:09.148Z,68.32
2023-01-26T06:09:37.182Z,68.08
2023-01-26T06:12:05.762Z,68.46
2023-01-26T06:14:34.050Z,67.94
2023-01-26T06:17:02.288Z,66.99
2023-01-26T06:19:30.686Z,66.84
2023-01-26T06:21:59.260Z,66.69
2023-01-26T06:24:26.798Z,66.91
2023-01-26T06:26:54.944Z,67.46
2023-01-26T06:29:23.098Z,67.31
2023-01-26T06:31:51.414Z,67.36
2023-01-26T06:34:20.163Z,68.11
2023-01-26T06:36:48.668Z,67.98
2023-01-26T06:39:17.328Z,67.78
2023-01-26T06:41:48.065Z,67.49
2023-01-26T06:44:16.128Z,66.49
2023-01-26T06:46:44.349Z,66.89
2023-01-26T06:49:13.300Z,67.14
2023-01-26T06:51:48.029Z,66.66
2023-01-26T06:54:16.014Z,67.09
2023-01-26T06:56:44.377Z,66.45
2023-01-26T06:59:12.408Z,67.20
2023-01-26T07:01:42.146Z,66.19
2023-01-26T07:04:09.917Z,66.60
2023-01-26T07:06:37.608Z,66.72
2023-01-26T07:09:06.422Z,67.08
2023-01-26T07:11:34.488Z,67.50
2023-01-26T07:14:02.320Z,66.65
2023-01-26T07:16:33.434Z,67.01
2023-01-26T07:19:01.632Z,66.50
2023-01-26T07:21:29.951Z,66.30
2023-01-26T07:23:58.022Z,66.10
2023-01-26T07:26:25.845Z,65.62
2023-01-26T07:28:53.835Z,65.56
2023-01-26T07:31:21.638Z,65.01
2023-01-26T07:33:49.654Z,64.49
2023-01-26T07:36:17.768Z,65.11
2023-01-26T07:38:45.310Z,65.00
2023-01-26T07:41:12.900Z,64.47
2023-01-26T07:43:40.106Z,64.43
2023-01-26T07:46:07.602Z,64.87
2023-01-26T07:48:35.455Z,63.97
2023-01-26T07:51:03.848Z,63.77
2023-01-26T07:53:34.350Z,63.54
2023-01-26T07:56:11.898Z,63.99
2023-01-26T07:58:39.768Z,63.59
2023-01-26T08:01:11.903Z,63.00
2023-01-26T08:03:39.595Z,62.56
2023-01-26T08:06:11.772Z,63.10
2023-01-26T08:08:45.247Z,63.36
2023-01-26T08:11:12.968Z,63.06
2023-01-26T08:13:40.675Z,62.52
2023-01-26T08:16:12.525Z,62.40
2023-01-26T08:18:44.165Z,61.50
2023-01-26T08:21:12.754Z,61.10
2023-01-26T08:23:40.949Z,60.92
2023-01-26T08:26:10.689Z,61.07
2023-01-26T08:28:37.867Z,60.51
2023-01-26T08:31:07.274Z,59.90
2023-01-26T08:33:35.667Z,59.14
2023-01-26T08:36:04.829Z,58.74
2023-01-26T08:38:33.003Z,57.94
2023-01-26T08:41:00.574Z,56.83
2023-01-26T08:43:29.034Z,56.44
2023-01-26T08:45:57.637Z,56.68
2023-01-26T08:48:25.419Z,55.94
2023-01-26T08:51:15.959Z,55.91
2023-01-26T08:53:43.987Z,55.82
2023-01-26T08:56:11.897Z,55.57
2023-01-26T08:58:39.721Z,55.39
2023-01-26T09:01:11.667Z,54.26
2023-01-26T09:03:39.340Z,54.05
2023-01-26T09:06:06.991Z,53.82
2023-01-26T09:08:38.190Z,53.21
2023-01-26T09:11:08.962Z,53.75
2023-01-26T09:13:37.408Z,52.89
2023-01-26T09:16:07.113Z,52.74
2023-01-26T09:18:35.217Z,53.17
2023-01-26T09:21:09.690Z,52.54
2023-01-26T09:23:37.744Z,52.42
2023-01-26T09:26:05.840Z,51.39
2023-01-26T09:28:34.004Z,51.37
2023-01-26T09:31:08.459Z,51.82
2023-01-26T09:33:36.832Z,51.07
2023-01-26T09:36:08.083Z,51.72
2023-01-26T09:38:40.323Z,51.21
2023-01-26T09:41:16.022Z,50.97
2023-01-26T09:43:43.634Z,50.98
2023-01-26T09:46:27.081Z,50.68
2023-01-26T09:49:00.048Z,50.43
2023-01-26T09:51:43.303Z,49.63
2023-01-26T09:54:42.186Z,50.26
2023-01-26T09:57:20.397Z,50.74
2023-01-26T09:59:59.203Z,50.33
2023-01-26T10:03:04.020Z,49.52
2023-01-26T10:05:43.127Z,49.29
2023-01-26T10:08:12.733Z,49.48
2023-01-26T10:11:11.379Z,49.90
2023-01-26T10:13:39.488Z,49.71
2023-01-26T10:16:11.074Z,49.36
2023-01-26T10:18:47.993Z,48.88
2023-01-26T10:21:15.130Z,48.78
2023-01-26T10:23:48.043Z,49.49
2023-01-26T10:26:18.986Z,48.67
2023-01-26T10:28:47.549Z,48.83
2023-01-26T10:31:19.543Z,49.04
2023-01-26T10:34:17.414Z,50.00
2023-01-26T10:36:46.605Z,49.44
2023-01-26T10:39:15.703Z,49.87
2023-01-26T10:41:57.705Z,49.53
2023-01-26T10:44:34.346Z,49.47
2023-01-26T10:47:15.867Z,49.11
2023-01-26T10:49:44.308Z,49.62
2023-01-26T10:52:27.993Z,49.79
2023-01-26T10:55:09.909Z,50.09
2023-01-26T10:57:41.287Z,49.65
2023-01-26T11:00:20.742Z,49.39
2023-01-26T11:02:55.816Z,48.73
2023-01-26T11:05:24.142Z,47.20
2023-01-26T11:08:00.235Z,47.19
2023-01-26T11:10:31.941Z,47.17
2023-01-26T11:13:07.618Z,46.80
2023-01-26T11:15:39.872Z,46.94
2023-01-26T11:18:28.788Z,46.10
2023-01-26T11:21:32.437Z,45.71
2023-01-26T11:24:29.334Z,44.71
2023-01-26T11:27:21.598Z,45.00
2023-01-26T11:30:22.217Z,46.49
2023-01-26T11:33:00.745Z,45.72
2023-01-26T11:35:45.947Z,44.94
2023-01-26T11:38:28.121Z,44.53
2023-01-26T11:41:02.327Z,44.47
2023-01-26T11:44:00.457Z,44.68
2023-01-26T11:46:39.114Z,43.71
2023-01-26T11:49:12.077Z,42.84
2023-01-26T11:52:17.248Z,42.97
2023-01-26T11:55:08.126Z,42.36
2023-01-26T11:57:43.987Z,41.55
2023-01-26T12:00:30.069Z,41.47
2023-01-26T12:03:06.431Z,40.53
2023-01-26T12:05:44.639Z,39.36
2023-01-26T12:08:22.493Z,40.07
2023-01-26T12:11:22.545Z,39.65
2023-01-26T12:14:19.919Z,38.77
2023-01-26T12:16:52.559Z,37.62
2023-01-26T12:19:50.044Z,37.10
2023-01-26T12:22:34.446Z,35.14
2023-01-26T12:25:21.789Z,34.63
2023-01-26T12:27:54.223Z,34.08
2023-01-26T12:30:46.405Z,34.00
2023-01-26T12:33:14.438Z,34.23
2023-01-26T12:36:18.407Z,35.25
2023-01-26T12:38:57.723Z,36.20
2023-01-26T12:41:33.572Z,37.32
2023-01-26T12:44:07.655Z,38.07
2023-01-26T12:46:36.250Z,39.81
2023-01-26T12:49:11.103Z,37.74
2023-01-26T12:51:45.459Z,37.47
2023-01-26T12:54:22.489Z,37.66
2023-01-26T12:56:55.023Z,38.93
2023-01-26T12:59:57.608Z,38.75
2023-01-26T13:02:31.930Z,37.37
2023-01-26T13:04:59.422Z,36.48
2023-01-26T13:07:34.995Z,35.70
2023-01-26T13:10:22.155Z,34.89
2023-01-26T13:13:22.862Z,34.70
2023-01-26T13:16:11.041Z,33.65
2023-01-26T13:18:52.598Z,33.38
2023-01-26T13:21:29.229Z,32.15
2023-01-26T13:23:56.494Z,31.62
2023-01-26T13:26:32.424Z,32.04
2023-01-26T13:29:37.851Z,31.46
2023-01-26T13:32:15.502Z,33.66
2023-01-26T13:34:44.130Z,34.20
2023-01-26T13:37:17.901Z,33.91
2023-01-26T13:39:46.830Z,35.27
2023-01-26T13:42:20.561Z,36.18
2023-01-26T13:45:05.630Z,37.14
2023-01-26T13:48:05.511Z,38.27
2023-01-26T13:50:40.852Z,38.99
2023-01-26T13:53:27.872Z,39.66
2023-01-26T13:55:57.915Z,39.32
2023-01-26T13:58:25.937Z,39.31
2023-01-26T14:00:59.845Z,39.81
2023-01-26T14:03:27.580Z,40.83
2023-01-26T14:05:56.765Z,40.89
2023-01-26T14:08:24.411Z,41.49
2023-01-26T14:10:52.178Z,41.66
2023-01-26T14:13:45.294Z,42.75
2023-01-26T14:16:21.670Z,42.03
2023-01-26T14:18:49.673Z,42.19
2023-01-26T14:21:47.053Z,42.20
2023-01-26T14:24:15.136Z,41.35
2023-01-26T14:26:42.894Z,41.87
2023-01-26T14:29:19.234Z,42.24
2023-01-26T14:31:46.974Z,42.47
2023-01-26T14:34:19.242Z,42.87
2023-01-26T14:36:46.987Z,46.13
2023-01-26T14:39:38.990Z,44.87
2023-01-26T14:42:06.839Z,44.76
2023-01-26T14:44:34.350Z,45.54
2023-01-26T14:47:07.241Z,45.97
2023-01-26T14:49:45.775Z,45.56
2023-01-26T14:52:18.785Z,46.55
2023-01-26T14:54:46.480Z,46.33
2023-01-26T14:57:17.432Z,46.35
2023-01-26T14:59:47.371Z,46.45
2023-01-26T15:02:14.260Z,46.55
2023-01-26T15:04:41.482Z,46.46
2023-01-26T15:07:33.239Z,46.53
2023-01-26T15:10:01.554Z,46.74
2023-01-26T15:12:33.985Z,46.65
2023-01-26T15:15:01.713Z,46.88
2023-01-26T15:18:01.080Z,46.41
2023-01-26T15:20:27.664Z,46.97
2023-01-26T15:22:55.457Z,48.27
2023-01-26T15:25:29.151Z,47.35
2023-01-26T15:27:59.988Z,48.78
2023-01-26T15:30:27.222Z,48.77
2023-01-26T15:32:55.530Z,49.56
2023-01-26T15:35:24.562Z,49.64
2023-01-26T15:38:07.012Z,49.32
2023-01-26T15:40:34.785Z,50.15
2023-01-26T15:43:20.662Z,50.11
2023-01-26T15:45:50.920Z,50.01
2023-01-26T15:48:20.644Z,50.10
2023-01-26T15:50:48.282Z,51.33
2023-01-26T15:53:16.241Z,51.97
2023-01-26T15:55:44.396Z,52.07
2023-01-26T15:58:12.529Z,53.03
2023-01-26T16:00:40.659Z,53.20
2023-01-26T16:03:13.162Z,53.30
2023-01-26T16:05:41.469Z,54.72
2023-01-26T16:08:10.448Z,54.56
2023-01-26T16:11:00.841Z,55.54
2023-01-26T16:13:29.055Z,55.98
2023-01-26T16:15:57.151Z,55.72
2023-01-26T16:18:25.745Z,56.77
2023-01-26T16:20:54.329Z,57.37
2023-01-26T16:23:26.598Z,57.80
2023-01-26T16:25:54.714Z,57.59
2023-01-26T16:28:22.094Z,57.47
2023-01-26T16:30:50.238Z,58.08
2023-01-26T16:33:21.275Z,59.01
2023-01-26T16:35:48.637Z,59.72
2023-01-26T16:38:16.442Z,59.56
2023-01-26T16:40:47.748Z,59.19
2023-01-26T16:43:24.212Z,59.13
2023-01-26T16:45:52.549Z,59.50
2023-01-26T16:48:20.410Z,57.87
2023-01-26T16:50:47.700Z,57.24
2023-01-26T16:53:23.080Z,57.19
2023-01-26T16:55:51.035Z,57.20
2023-01-26T16:58:18.800Z,57.32
2023-01-26T17:00:46.929Z,56.70
2023-01-26T17:03:14.065Z,56.20
2023-01-26T17:05:41.470Z,56.38
2023-01-26T17:08:08.672Z,56.34
2023-01-26T17:10:36.682Z,56.49
2023-01-26T17:13:03.859Z,56.80
2023-01-26T17:15:30.809Z,56.83
2023-01-26T17:17:58.545Z,56.32
2023-01-26T17:20:27.156Z,56.40
2023-01-26T17:22:54.943Z,56.64
2023-01-26T17:25:25.865Z,56.90
2023-01-26T17:27:53.553Z,56.69
2023-01-26T17:30:21.831Z,56.71
2023-01-26T17:32:50.085Z,57.23
2023-01-26T17:35:18.411Z,56.95
2023-01-26T17:37:46.163Z,56.65
2023-01-26T17:40:14.425Z,56.35
2023-01-26T17:42:42.807Z,56.60
2023-01-26T17:45:12.540Z,56.84
2023-01-26T17:47:40.911Z,56.73
2023-01-26T17:50:12.154Z,56.88
2023-01-26T17:52:40.359Z,57.13
2023-01-26T17:55:09.765Z,56.59
2023-01-26T17:57:37.900Z,56.70
2023-01-26T18:00:07.227Z,56.39
2023-01-26T18:02:34.929Z,56.58
2023-01-26T18:05:03.267Z,56.31
2023-01-26T18:07:31.644Z,57.22
2023-01-26T18:10:02.850Z,57.24
2023-01-26T18:12:31.004Z,58.12
2023-01-26T18:14:59.106Z,58.24
2023-01-26T18:17:27.209Z,58.11
2023-01-26T18:19:55.413Z,58.41
2023-01-26T18:22:23.545Z,58.33
2023-01-26T18:24:52.903Z,58.47
2023-01-26T18:27:20.990Z,58.22
2023-01-26T18:29:49.030Z,58.05
2023-01-26T18:32:16.271Z,57.79
2023-01-26T18:34:44.082Z,57.59
2023-01-26T18:37:15.575Z,57.21
2023-01-26T18:39:45.501Z,57.37
2023-01-26T18:42:13.157Z,57.71
2023-01-26T18:44:40.920Z,57.61
2023-01-26T18:47:08.735Z,58.25
2023-01-26T18:49:36.839Z,58.74
2023-01-26T18:52:05.527Z,57.92
2023-01-26T18:54:38.350Z,58.49
2023-01-26T18:57:06.429Z,58.85
2023-01-26T18:59:34.568Z,58.93
2023-01-26T19:02:03.265Z,59.37
2023-01-26T19:04:31.202Z,59.41
2023-01-26T19:06:59.656Z,59.51
2023-01-26T19:09:34.551Z,59.83
2023-01-26T19:12:02.281Z,60.14
2023-01-26T19:14:32.387Z,59.97
2023-01-26T19:16:59.973Z,59.83
2023-01-26T19:19:27.481Z,60.04
2023-01-26T19:21:55.125Z,60.20
2023-01-26T19:24:23.492Z,60.38
2023-01-26T19:26:51.617Z,60.37
2023-01-26T19:29:19.719Z,60.52
2023-01-26T19:31:48.059Z,60.48
2023-01-26T19:34:17.474Z,60.87
2023-01-26T19:36:46.872Z,61.06
2023-01-26T19:39:14.581Z,60.89
2023-01-26T19:41:42.404Z,61.00
2023-01-26T19:44:10.571Z,61.12
2023-01-26T19:46:39.171Z,60.85
2023-01-26T19:49:11.710Z,60.72
2023-01-26T19:51:39.093Z,61.32
2023-01-26T19:54:07.349Z,61.36
2023-01-26T19:56:41.511Z,61.25
2023-01-26T19:59:10.412Z,61.48
2023-01-26T20:01:37.667Z,61.37
2023-01-26T20:04:07.282Z,61.52
2023-01-26T20:06:36.180Z,61.42
2023-01-26T20:09:05.172Z,61.29
2023-01-26T20:11:34.061Z,60.94
2023-01-26T20:14:03.914Z,61.46
2023-01-26T20:16:32.097Z,61.26
2023-01-26T20:19:00.115Z,60.61
2023-01-26T20:21:28.265Z,60.90
2023-01-26T20:23:56.523Z,61.67
2023-01-26T20:26:25.826Z,60.96
2023-01-26T20:28:56.178Z,61.08
2023-01-26T20:31:26.765Z,61.68
2023-01-26T20:33:58.428Z,60.87
2023-01-26T20:36:27.684Z,60.55
2023-01-26T20:38:55.799Z,60.96
2023-01-26T20:41:25.877Z,60.72
2023-01-26T20:44:02.309Z,60.96
2023-01-26T20:46:31.791Z,61.31
2023-01-26T20:48:59.634Z,61.63
2023-01-26T20:51:30.386Z,61.19
2023-01-26T20:53:58.249Z,60.69
2023-01-26T20:56:29.056Z,60.91
2023-01-26T20:58:57.151Z,61.25
2023-01-26T21:01:25.093Z,60.76
2023-01-26T21:03:53.192Z,60.98
2023-01-26T21:06:22.310Z,61.21
2023-01-26T21:08:49.575Z,61.00
2023-01-26T21:11:18.319Z,60.92
2023-01-26T21:13:46.261Z,61.21
2023-01-26T21:16:15.777Z,60.80
2023-01-26T21:18:50.132Z,60.37
2023-01-26T21:21:18.777Z,60.03
2023-01-26T21:23:47.130Z,59.95
2023-01-26T21:26:21.545Z,60.09
2023-01-26T21:28:58.257Z,59.76
2023-01-26T21:31:26.916Z,60.00
2023-01-26T21:33:54.694Z,60.23
2023-01-26T21:36:23.800Z,60.67
2023-01-26T21:38:52.236Z,60.02
2023-01-26T21:41:38.710Z,59.30
2023-01-26T21:44:07.212Z,59.37
2023-01-26T21:46:34.744Z,59.78
2023-01-26T21:49:02.095Z,59.50
2023-01-26T21:51:48.449Z,59.39
2023-01-26T21:54:16.025Z,59.50
2023-01-26T21:56:44.404Z,59.90
2023-01-26T21:59:14.651Z,59.26
2023-01-26T22:01:47.929Z,60.07
2023-01-26T22:04:20.507Z,60.27
2023-01-26T22:06:47.884Z,60.41
2023-01-26T22:09:17.204Z,61.04
2023-01-26T22:11:45.798Z,61.72
2023-01-26T22:14:15.746Z,61.47
2023-01-26T22:16:43.985Z,61.46
2023-01-26T22:19:12.148Z,61.75
2023-01-26T22:21:39.803Z,62.64
2023-01-26T22:24:09.374Z,62.45
2023-01-26T22:26:39.076Z,62.54
2023-01-26T22:29:06.301Z,62.60
2023-01-26T22:31:34.392Z,62.50
2023-01-26T22:34:02.095Z,62.33
2023-01-26T22:36:50.196Z,61.92
2023-01-26T22:39:17.809Z,61.82
2023-01-26T22:41:45.714Z,61.30
2023-01-26T22:44:13.788Z,61.04
2023-01-26T22:46:41.309Z,60.51
2023-01-26T22:49:09.968Z,60.08
2023-01-26T22:51:37.780Z,59.29
2023-01-26T22:54:05.823Z,58.66
2023-01-26T22:56:33.588Z,58.46
2023-01-26T22:59:00.960Z,57.87
2023-01-26T23:01:32.321Z,57.41
2023-01-26T23:04:00.505Z,57.23
2023-01-26T23:06:28.234Z,56.95
2023-01-26T23:08:55.693Z,56.75
2023-01-26T23:11:24.690Z,56.33
2023-01-26T23:13:53.414Z,56.35
2023-01-26T23:16:22.957Z,56.65
2023-01-26T23:18:50.899Z,56.19
2023-01-26T23:21:18.653Z,56.55
2023-01-26T23:23:46.763Z,56.42
2023-01-26T23:26:14.496Z,56.18
2023-01-26T23:28:42.725Z,56.30
2023-01-26T23:31:10.540Z,56.11
2023-01-26T23:33:38.932Z,56.35
2023-01-26T23:36:08.733Z,56.66
2023-01-26T23:38:36.493Z,56.99
2023-01-26T23:41:08.716Z,55.80
2023-01-26T23:43:36.850Z,55.53
2023-01-26T23:46:05.078Z,55.98
2023-01-26T23:48:33.587Z,56.64
2023-01-26T23:51:30.165Z,56.47
2023-01-26T23:53:58.384Z,56.68
2023-01-26T23:56:26.452Z,56.98
2023-01-26T23:58:54.931Z,56.79
